Time;durP1;ratioP1;P1;durP2;ratioP2;P2;SDS_P1;SDS_P2;PMS_P1;PMS_P2;Temp;Humidity;BMP_temperature;BMP_pressure;BME280_temperature;BME280_humidity;BME280_pressure;Samples;Min_cycle;Max_cycle;Signal;HPM_P1;HPM_P2
2022/12/28 00:00:45;;;;;;;1.10;1.00;;;19.20;38.90;;;;;;5024854;28;20444;-60
2022/12/28 00:03:11;;;;;;;1.07;0.80;;;19.20;39.00;;;;;;5024048;28;20241;-62
2022/12/28 00:05:36;;;;;;;1.00;0.80;;;19.20;39.00;;;;;;5021045;28;20251;-61
2022/12/28 00:08:02;;;;;;;1.00;0.90;;;19.20;38.90;;;;;;5020672;28;20609;-59
2022/12/28 00:10:29;;;;;;;1.00;0.90;;;19.20;38.90;;;;;;5024265;28;20225;-60
2022/12/28 00:12:54;;;;;;;0.73;0.73;;;19.20;38.90;;;;;;5023116;28;20353;-61
2022/12/28 00:15:19;;;;;;;0.80;0.80;;;19.20;38.90;;;;;;5022764;28;20510;-64
2022/12/28 00:17:45;;;;;;;0.80;0.80;;;19.20;39.00;;;;;;5024640;28;20223;-62
2022/12/28 00:20:11;;;;;;;0.90;0.80;;;19.20;38.90;;;;;;5023491;28;20690;-62
2022/12/28 00:22:36;;;;;;;0.90;0.80;;;19.20;38.90;;;;;;5023012;28;20318;-61
2022/12/28 00:25:02;;;;;;;0.80;0.70;;;19.20;38.90;;;;;;4999869;28;20609;-59
2022/12/28 00:27:27;;;;;;;0.90;0.90;;;19.20;38.90;;;;;;5023461;28;20261;-64
2022/12/28 00:29:53;;;;;;;0.83;0.80;;;19.20;38.90;;;;;;5025430;28;20245;-61
2022/12/28 00:32:18;;;;;;;1.13;1.10;;;19.20;38.90;;;;;;5022772;28;20294;-61
2022/12/28 00:34:44;;;;;;;0.70;0.60;;;19.20;38.90;;;;;;5023734;28;20218;-59
2022/12/28 00:37:09;;;;;;;1.10;1.00;;;19.20;38.90;;;;;;5023159;28;20215;-63
2022/12/28 00:39:35;;;;;;;0.73;0.70;;;19.20;38.90;;;;;;5022491;28;20719;-59
2022/12/28 00:42:00;;;;;;;0.80;0.70;;;19.20;38.90;;;;;;5023110;28;20728;-61
2022/12/28 00:44:26;;;;;;;0.80;0.70;;;19.20;38.90;;;;;;5023646;28;20230;-61
2022/12/28 00:46:51;;;;;;;1.00;0.83;;;19.20;38.90;;;;;;5023426;28;20223;-60
2022/12/28 00:49:17;;;;;;;0.90;0.80;;;19.20;38.90;;;;;;5022598;28;20751;-59
2022/12/28 00:51:42;;;;;;;0.80;0.80;;;19.20;38.90;;;;;;5021596;28;20227;-63
2022/12/28 00:54:08;;;;;;;0.70;0.70;;;19.20;38.90;;;;;;5023812;28;20679;-61
2022/12/28 00:56:33;;;;;;;0.73;0.67;;;19.20;39.00;;;;;;5021598;28;20305;-62
2022/12/28 00:58:59;;;;;;;0.80;0.80;;;19.20;38.90;;;;;;5023626;28;20223;-60
2022/12/28 01:01:26;;;;;;;0.77;0.70;;;19.20;38.90;;;;;;5022671;28;20699;-61
2022/12/28 01:03:55;;;;;;;1.00;0.70;;;19.20;39.00;;;;;;5021591;28;20230;-62
2022/12/28 01:06:21;;;;;;;0.80;0.80;;;19.20;38.90;;;;;;5022799;28;20833;-62
2022/12/28 01:08:46;;;;;;;1.57;0.80;;;19.20;38.90;;;;;;5022213;28;20418;-60
2022/12/28 01:11:21;;;;;;;0.90;0.70;;;19.20;38.90;;;;;;5024357;28;20207;-62
2022/12/28 01:13:48;;;;;;;0.90;0.90;;;19.20;38.90;;;;;;5022142;28;20228;-61
2022/12/28 01:16:23;;;;;;;1.00;0.90;;;19.20;39.00;;;;;;5021430;28;20538;-60
2022/12/28 01:18:52;;;;;;;0.70;0.70;;;19.20;38.90;;;;;;5022215;28;20450;-62
2022/12/28 01:21:20;;;;;;;0.80;0.70;;;19.20;38.90;;;;;;5022492;28;20539;-62
2022/12/28 01:23:47;;;;;;;2.00;1.00;;;19.20;38.90;;;;;;5022289;28;20460;-64
2022/12/28 01:26:13;;;;;;;0.70;0.70;;;19.20;38.80;;;;;;5023928;28;20462;-60
2022/12/28 01:28:39;;;;;;;0.80;0.80;;;19.20;39.70;;;;;;5021281;28;20502;-62
2022/12/28 01:31:11;;;;;;;0.77;0.70;;;19.20;38.80;;;;;;5022015;28;20537;-62
2022/12/28 01:33:37;;;;;;;0.70;0.70;;;19.20;39.60;;;;;;5022297;28;20226;-60
2022/12/28 01:36:15;;;;;;;1.03;0.70;;;19.20;38.80;;;;;;5022312;28;20459;-59
2022/12/28 01:38:42;;;;;;;0.80;0.60;;;19.20;39.60;;;;;;5022364;28;20237;-60
2022/12/28 01:41:16;;;;;;;0.70;0.60;;;19.20;38.80;;;;;;5023984;28;20419;-62
2022/12/28 01:43:52;;;;;;;0.80;0.80;;;19.20;38.70;;;;;;5016695;28;20545;-60
2022/12/28 01:46:19;;;;;;;0.83;0.70;;;19.20;38.70;;;;;;5015260;28;20437;-62
2022/12/28 01:49:10;;;;;;;0.70;0.60;;;19.20;38.70;;;;;;5016412;28;21068;-60
2022/12/28 01:51:56;;;;;;;1.00;0.70;;;19.20;39.10;;;;;;5021630;28;20479;-59
2022/12/28 01:54:25;;;;;;;0.70;0.63;;;19.20;38.60;;;;;;5022787;28;20448;-60
2022/12/28 01:56:51;;;;;;;0.90;0.73;;;19.20;38.70;;;;;;5020714;28;20486;-59
2022/12/28 01:59:20;;;;;;;0.70;0.70;;;19.20;38.70;;;;;;5021309;28;20480;-61
2022/12/28 02:01:46;;;;;;;0.80;0.70;;;19.20;38.70;;;;;;5015012;28;20452;-65
2022/12/28 02:04:12;;;;;;;0.80;0.70;;;19.20;38.70;;;;;;5014583;28;20509;-60
2022/12/28 02:06:37;;;;;;;0.70;0.60;;;19.20;38.70;;;;;;5017845;28;20300;-60
2022/12/28 02:09:08;;;;;;;0.80;0.70;;;19.20;38.80;;;;;;5021083;28;20221;-60
2022/12/28 02:11:36;;;;;;;0.80;0.70;;;19.20;38.70;;;;;;5021489;28;20222;-60
2022/12/28 02:14:03;;;;;;;0.70;0.70;;;19.20;38.70;;;;;;5021766;28;20849;-64
2022/12/28 02:16:29;;;;;;;0.70;0.60;;;19.20;38.60;;;;;;5023496;28;20499;-60
2022/12/28 02:18:55;;;;;;;0.73;0.70;;;19.20;38.70;;;;;;5027059;28;20443;-60
2022/12/28 02:21:53;;;;;;;0.80;0.60;;;19.20;38.60;;;;;;5023534;28;20231;-60
2022/12/28 02:24:53;;;;;;;0.80;0.80;;;19.20;38.50;;;;;;4962929;28;20962;-60
2022/12/28 02:27:49;;;;;;;0.80;0.70;;;19.20;38.50;;;;;;5026084;28;20486;-61
2022/12/28 02:30:16;;;;;;;0.60;0.60;;;19.20;38.50;;;;;;5026957;28;20453;-60
2022/12/28 02:33:11;;;;;;;0.80;0.63;;;19.20;38.70;;;;;;5024470;28;20538;-60
2022/12/28 02:35:42;;;;;;;0.70;0.70;;;19.20;38.50;;;;;;5024378;28;20451;-62
2022/12/28 02:38:25;;;;;;;0.70;0.70;;;19.20;38.60;;;;;;5024084;28;20460;-61
2022/12/28 02:41:07;;;;;;;0.67;0.60;;;19.20;38.50;;;;;;5024547;28;20434;-60
2022/12/28 02:43:33;;;;;;;0.90;0.80;;;19.20;38.50;;;;;;5025223;28;20648;-60
2022/12/28 02:52:14;;;;;;;0.80;0.80;;;19.20;38.50;;;;;;5024474;28;20959;-59
2022/12/28 02:57:36;;;;;;;0.80;0.80;;;19.20;38.50;;;;;;5022151;28;20511;-62
2022/12/28 03:00:33;;;;;;;0.60;0.60;;;19.20;38.50;;;;;;5024992;28;20460;-62
2022/12/28 03:03:13;;;;;;;0.77;0.70;;;19.20;38.50;;;;;;4987360;28;20720;-61
2022/12/28 03:08:51;;;;;;;0.70;0.60;;;19.20;38.50;;;;;;5023390;28;20441;-62
2022/12/28 03:11:21;;;;;;;0.80;0.67;;;19.20;38.50;;;;;;5023949;28;20971;-61
2022/12/28 03:13:58;;;;;;;0.70;0.70;;;19.20;38.50;;;;;;5024119;28;20423;-61
2022/12/28 03:25:41;;;;;;;0.67;0.50;;;19.20;38.50;;;;;;5025256;28;20839;-60
2022/12/28 03:33:09;;;;;;;0.80;0.80;;;19.20;38.50;;;;;;5023472;28;20467;-66
2022/12/28 03:35:49;;;;;;;0.70;0.60;;;19.20;38.50;;;;;;5025343;28;20418;-61
2022/12/28 03:38:26;;;;;;;0.70;0.70;;;19.20;38.50;;;;;;5024919;28;20459;-60
2022/12/28 03:40:59;;;;;;;0.60;0.60;;;19.20;38.50;;;;;;5023105;28;20778;-60
2022/12/28 03:43:39;;;;;;;0.73;0.70;;;19.20;38.50;;;;;;5022892;28;20541;-63
2022/12/28 03:46:23;;;;;;;0.70;0.60;;;19.20;38.50;;;;;;5021508;28;20463;-62
2022/12/28 03:48:50;;;;;;;0.70;0.60;;;19.20;38.50;;;;;;5023423;28;20455;-60
2022/12/28 03:51:21;;;;;;;0.80;0.67;;;19.20;38.50;;;;;;5024102;28;20498;-60
2022/12/28 03:53:47;;;;;;;0.60;0.60;;;19.20;38.50;;;;;;5023714;28;20893;-60
2022/12/28 03:56:15;;;;;;;0.80;0.70;;;19.20;38.50;;;;;;5024587;28;20563;-61
2022/12/28 03:58:41;;;;;;;0.70;0.60;;;19.20;38.50;;;;;;5022895;28;20951;-62
2022/12/28 04:01:07;;;;;;;0.60;0.60;;;19.20;38.50;;;;;;5024029;28;20481;-59
2022/12/28 04:03:34;;;;;;;0.60;0.60;;;19.20;38.50;;;;;;5023259;28;20226;-61
2022/12/28 04:05:59;;;;;;;0.70;0.60;;;19.20;38.50;;;;;;5022437;28;20449;-61
2022/12/28 04:08:25;;;;;;;0.60;0.60;;;19.20;38.50;;;;;;5023996;28;20910;-60
2022/12/28 04:10:51;;;;;;;0.80;0.70;;;19.20;38.50;;;;;;5025504;28;20223;-60
2022/12/28 04:13:17;;;;;;;0.80;0.70;;;19.20;38.50;;;;;;5022548;28;20773;-60
2022/12/28 04:15:42;;;;;;;0.60;0.60;;;19.20;38.50;;;;;;5004752;28;20234;-61
2022/12/28 04:18:08;;;;;;;0.70;0.60;;;19.20;38.50;;;;;;5023408;28;20237;-61
2022/12/28 04:20:33;;;;;;;0.73;0.60;;;19.20;38.50;;;;;;5022776;28;20222;-64
2022/12/28 04:22:59;;;;;;;0.70;0.70;;;19.20;38.50;;;;;;5024337;28;20239;-60
2022/12/28 04:25:24;;;;;;;0.60;0.60;;;19.20;38.50;;;;;;5024029;28;20243;-61
2022/12/28 04:27:50;;;;;;;0.70;0.70;;;19.20;38.50;;;;;;5023265;28;20246;-61
2022/12/28 04:30:16;;;;;;;0.60;0.60;;;19.20;38.50;;;;;;5023570;28;23658;-60
2022/12/28 04:32:41;;;;;;;0.70;0.63;;;19.20;38.50;;;;;;5023011;28;20633;-60
2022/12/28 04:35:07;;;;;;;0.90;0.80;;;19.20;38.50;;;;;;5023783;28;20230;-63
2022/12/28 04:37:35;;;;;;;0.77;0.70;;;19.20;38.50;;;;;;5021680;28;20222;-60
2022/12/28 04:40:01;;;;;;;0.70;0.70;;;19.20;38.50;;;;;;5023335;28;20223;-60
2022/12/28 04:42:27;;;;;;;0.80;0.70;;;19.20;38.50;;;;;;5021792;28;20434;-61
2022/12/28 04:44:52;;;;;;;0.90;0.70;;;19.20;38.50;;;;;;5024160;28;20696;-60
2022/12/28 04:47:18;;;;;;;0.67;0.60;;;19.20;38.50;;;;;;5021988;28;20264;-61
2022/12/28 04:49:43;;;;;;;0.90;0.60;;;19.20;38.50;;;;;;5024123;28;20215;-61
2022/12/28 04:52:09;;;;;;;0.77;0.70;;;19.20;38.50;;;;;;5024212;28;20238;-61
2022/12/28 04:54:34;;;;;;;0.80;0.73;;;19.20;38.50;;;;;;5022469;28;20223;-65
2022/12/28 04:57:00;;;;;;;0.70;0.67;;;19.20;38.50;;;;;;5022721;28;20222;-62
2022/12/28 04:59:25;;;;;;;0.70;0.63;;;19.20;38.60;;;;;;5023398;28;20273;-60
2022/12/28 05:01:51;;;;;;;0.70;0.60;;;19.20;38.50;;;;;;5022337;28;20277;-59
2022/12/28 05:04:16;;;;;;;0.80;0.70;;;19.20;38.50;;;;;;5022154;28;20223;-60
2022/12/28 05:06:42;;;;;;;0.90;0.70;;;19.20;38.60;;;;;;5023511;28;20218;-60
2022/12/28 05:09:07;;;;;;;0.70;0.60;;;19.20;38.50;;;;;;5022206;28;20528;-61
2022/12/28 05:11:33;;;;;;;0.60;0.60;;;19.20;38.50;;;;;;5022184;28;20221;-60
2022/12/28 05:13:58;;;;;;;0.70;0.67;;;19.20;38.50;;;;;;5022497;28;20658;-61
2022/12/28 05:16:26;;;;;;;0.73;0.70;;;19.20;38.50;;;;;;5023598;28;20688;-60
2022/12/28 05:18:52;;;;;;;0.77;0.60;;;19.20;38.50;;;;;;5022542;28;20214;-64
2022/12/28 05:21:22;;;;;;;0.70;0.60;;;19.20;38.50;;;;;;5021003;28;20439;-61
2022/12/28 05:23:48;;;;;;;0.60;0.50;;;19.20;38.50;;;;;;5022653;28;20556;-60
2022/12/28 05:26:17;;;;;;;0.67;0.60;;;19.20;38.50;;;;;;5022295;28;21282;-61
2022/12/28 05:28:43;;;;;;;0.70;0.67;;;19.20;38.50;;;;;;5021943;28;20924;-60
2022/12/28 05:31:21;;;;;;;0.70;0.70;;;19.20;38.50;;;;;;5022520;28;20440;-60
2022/12/28 05:33:47;;;;;;;0.90;0.70;;;19.20;38.50;;;;;;5022570;28;20494;-60
2022/12/28 05:36:18;;;;;;;0.70;0.60;;;19.20;38.50;;;;;;5024264;28;20513;-61
2022/12/28 05:38:44;;;;;;;0.80;0.60;;;19.20;38.50;;;;;;5020495;28;20837;-60
2022/12/28 05:41:14;;;;;;;0.70;0.60;;;19.20;38.50;;;;;;5021826;28;20452;-65
2022/12/28 05:43:40;;;;;;;0.70;0.67;;;19.20;38.50;;;;;;5020993;28;20242;-62
2022/12/28 05:46:09;;;;;;;0.60;0.57;;;19.20;38.50;;;;;;5021458;28;20503;-61
2022/12/28 05:48:36;;;;;;;0.60;0.60;;;19.20;38.50;;;;;;5022104;28;20456;-62
2022/12/28 05:51:04;;;;;;;0.77;0.60;;;19.20;38.50;;;;;;5024962;28;20460;-60
2022/12/28 05:53:30;;;;;;;0.90;0.67;;;19.20;38.50;;;;;;5027620;28;20821;-61
2022/12/28 05:56:04;;;;;;;0.60;0.60;;;19.20;38.50;;;;;;5027747;28;20938;-61
2022/12/28 05:58:31;;;;;;;0.80;0.70;;;19.20;38.50;;;;;;5025035;28;20541;-61
2022/12/28 06:01:07;;;;;;;0.60;0.60;;;19.20;38.50;;;;;;5026667;28;20452;-60
2022/12/28 06:03:33;;;;;;;0.80;0.60;;;19.20;38.50;;;;;;5025536;28;20991;-60
2022/12/28 06:06:07;;;;;;;0.60;0.50;;;19.20;38.50;;;;;;5025163;28;20447;-61
2022/12/28 06:08:33;;;;;;;0.90;0.60;;;19.20;38.50;;;;;;5025888;28;20313;-60
2022/12/28 06:11:00;;;;;;;0.67;0.60;;;19.20;38.50;;;;;;5025933;28;20527;-64
2022/12/28 06:13:26;;;;;;;0.70;0.50;;;19.20;38.50;;;;;;5025929;28;20222;-66
2022/12/28 06:15:52;;;;;;;0.60;0.50;;;19.20;38.50;;;;;;5025186;28;20433;-63
2022/12/28 06:18:17;;;;;;;0.70;0.60;;;19.20;38.50;;;;;;5027024;28;20234;-59
2022/12/28 06:20:43;;;;;;;0.70;0.60;;;19.20;38.50;;;;;;5026263;28;20234;-61
2022/12/28 06:23:08;;;;;;;0.60;0.60;;;19.20;38.50;;;;;;5025855;28;20226;-61
2022/12/28 06:25:36;;;;;;;0.87;0.70;;;19.20;38.50;;;;;;5025595;28;20261;-60
2022/12/28 06:28:02;;;;;;;0.67;0.57;;;19.20;38.50;;;;;;5025773;28;20227;-60
2022/12/28 06:30:27;;;;;;;0.70;0.60;;;19.20;38.50;;;;;;5024917;28;20941;-60
2022/12/28 06:32:55;;;;;;;3.00;0.60;;;19.20;38.50;;;;;;5008492;28;20565;-61
2022/12/28 06:35:21;;;;;;;0.63;0.60;;;19.20;38.50;;;;;;5022895;28;20227;-61
2022/12/28 06:37:47;;;;;;;0.70;0.60;;;19.20;38.50;;;;;;5025106;28;20667;-62
2022/12/28 06:40:13;;;;;;;0.60;0.60;;;19.20;38.50;;;;;;5024474;28;20219;-60
2022/12/28 06:42:38;;;;;;;1.40;0.77;;;19.20;38.50;;;;;;5023398;28;20478;-61
2022/12/28 06:45:05;;;;;;;0.80;0.70;;;19.20;38.50;;;;;;5025298;28;20560;-59
2022/12/28 06:47:32;;;;;;;0.80;0.60;;;19.20;38.50;;;;;;5024736;28;20327;-61
2022/12/28 06:49:58;;;;;;;1.00;0.70;;;19.20;38.50;;;;;;5024233;28;20419;-60
2022/12/28 06:52:23;;;;;;;0.90;0.60;;;19.20;38.50;;;;;;5025109;28;20940;-60
2022/12/28 06:54:49;;;;;;;0.90;0.90;;;19.20;38.50;;;;;;5025580;28;20365;-60
2022/12/28 06:57:14;;;;;;;0.70;0.60;;;19.20;38.50;;;;;;5025158;28;20225;-65
2022/12/28 06:59:40;;;;;;;0.80;0.60;;;19.20;38.50;;;;;;5024833;28;20222;-60
2022/12/28 07:02:05;;;;;;;0.80;0.70;;;19.20;38.50;;;;;;5024184;28;20745;-61
2022/12/28 07:04:31;;;;;;;0.63;0.60;;;19.20;38.50;;;;;;5025635;28;20215;-60
2022/12/28 07:06:56;;;;;;;0.60;0.60;;;19.20;38.50;;;;;;5025660;28;20223;-61
2022/12/28 07:09:22;;;;;;;0.93;0.60;;;19.20;38.50;;;;;;5024780;28;20227;-60
2022/12/28 07:11:49;;;;;;;0.60;0.60;;;19.20;38.50;;;;;;5024878;28;20233;-60
2022/12/28 07:14:14;;;;;;;0.77;0.60;;;19.20;38.50;;;;;;5023899;28;20302;-61
2022/12/28 07:16:40;;;;;;;0.60;0.60;;;19.20;39.20;;;;;;5024998;28;20560;-60
2022/12/28 07:19:06;;;;;;;0.60;0.60;;;19.20;38.50;;;;;;5024834;28;20238;-63
2022/12/28 07:21:34;;;;;;;0.70;0.60;;;19.20;38.50;;;;;;5024766;28;20238;-62
2022/12/28 07:24:00;;;;;;;0.80;0.60;;;19.20;38.50;;;;;;5025422;28;20215;-62
2022/12/28 07:26:28;;;;;;;0.70;0.70;;;19.20;38.50;;;;;;5024235;28;20471;-60
2022/12/28 07:28:55;;;;;;;0.60;0.60;;;19.20;38.50;;;;;;5024342;28;20928;-64
2022/12/28 07:31:23;;;;;;;0.70;0.50;;;19.20;38.50;;;;;;5023994;28;20432;-60
2022/12/28 07:33:50;;;;;;;0.70;0.70;;;19.20;38.50;;;;;;5023976;28;20454;-61
2022/12/28 07:36:18;;;;;;;0.70;0.63;;;19.20;38.50;;;;;;5024119;28;20846;-60
2022/12/28 07:38:44;;;;;;;0.60;0.57;;;19.20;38.50;;;;;;5023900;28;20497;-60
2022/12/28 07:41:12;;;;;;;0.70;0.60;;;19.20;38.50;;;;;;5024158;28;20456;-63
2022/12/28 07:43:38;;;;;;;0.60;0.60;;;19.20;38.50;;;;;;5012640;28;20293;-64
2022/12/28 07:46:10;;;;;;;0.70;0.60;;;19.20;38.60;;;;;;5017923;28;20460;-60
2022/12/28 07:48:36;;;;;;;0.70;0.57;;;19.20;38.50;;;;;;5021178;28;20222;-65
2022/12/28 07:51:14;;;;;;;0.70;0.60;;;19.20;38.50;;;;;;5023921;28;20501;-62
2022/12/28 07:53:41;;;;;;;0.60;0.60;;;19.20;38.50;;;;;;5024125;28;20448;-63
2022/12/28 07:56:07;;;;;;;0.70;0.60;;;19.20;38.50;;;;;;5022358;28;20456;-63
2022/12/28 07:58:33;;;;;;;0.63;0.57;;;19.20;38.50;;;;;;5025155;28;20543;-60
2022/12/28 08:01:13;;;;;;;0.70;0.70;;;19.20;38.50;;;;;;5022236;28;20292;-60
2022/12/28 08:03:40;;;;;;;0.60;0.60;;;19.20;38.50;;;;;;5022693;28;20486;-61
2022/12/28 08:06:11;;;;;;;0.60;0.50;;;19.20;38.50;;;;;;5024169;28;20455;-60
2022/12/28 08:08:42;;;;;;;0.60;0.50;;;19.20;38.50;;;;;;5024670;28;20467;-60
2022/12/28 08:11:19;;;;;;;0.60;0.50;;;19.20;38.50;;;;;;5022060;28;20444;-60
2022/12/28 08:13:47;;;;;;;0.60;0.60;;;19.20;38.40;;;;;;5021390;28;20543;-61
2022/12/28 08:16:14;;;;;;;1.37;0.60;;;19.20;38.40;;;;;;5024487;28;20934;-59
2022/12/28 08:18:40;;;;;;;0.60;0.60;;;19.20;38.40;;;;;;5023213;28;20468;-60
2022/12/28 08:21:12;;;;;;;0.70;0.70;;;19.20;38.40;;;;;;5022094;28;20444;-62
2022/12/28 08:23:37;;;;;;;0.70;0.50;;;19.20;38.40;;;;;;5023311;28;20439;-62
2022/12/28 08:26:11;;;;;;;0.60;0.60;;;19.20;38.30;;;;;;5023541;28;20448;-65
2022/12/28 08:28:38;;;;;;;0.60;0.60;;;19.20;38.30;;;;;;5023657;28;20250;-61
2022/12/28 08:31:12;;;;;;;0.67;0.50;;;19.20;38.50;;;;;;5022490;28;20456;-61
2022/12/28 08:33:38;;;;;;;0.90;0.80;;;19.20;38.30;;;;;;5021532;28;20513;-64
2022/12/28 08:36:04;;;;;;;0.70;0.60;;;19.20;38.30;;;;;;5023031;28;20444;-60
2022/12/28 08:38:30;;;;;;;0.80;0.60;;;19.20;38.20;;;;;;5019774;28;20226;-62
2022/12/28 08:40:58;;;;;;;0.70;0.60;;;19.20;38.20;;;;;;5022741;28;20414;-60
2022/12/28 08:43:25;;;;;;;0.60;0.50;;;19.20;38.30;;;;;;5022157;28;20467;-60
2022/12/28 08:46:02;;;;;;;0.60;0.50;;;19.20;38.20;;;;;;5020647;28;20430;-60
2022/12/28 08:48:28;;;;;;;0.60;0.50;;;19.20;38.20;;;;;;5022260;28;20978;-61
2022/12/28 08:50:54;;;;;;;0.70;0.60;;;19.20;38.20;;;;;;5022803;28;20438;-61
2022/12/28 08:53:23;;;;;;;0.70;0.60;;;19.20;38.20;;;;;;5022649;28;20440;-61
2022/12/28 08:55:49;;;;;;;0.77;0.60;;;19.20;38.20;;;;;;5023399;28;20219;-61
2022/12/28 08:58:14;;;;;;;1.10;0.60;;;19.20;38.20;;;;;;5024601;28;20490;-61
2022/12/28 09:00:40;;;;;;;0.60;0.50;;;19.20;38.20;;;;;;5022502;28;20819;-61
2022/12/28 09:03:05;;;;;;;0.80;0.70;;;19.20;38.10;;;;;;5024000;28;20230;-64
2022/12/28 09:05:31;;;;;;;0.63;0.60;;;19.20;38.20;;;;;;5023356;28;20222;-61
2022/12/28 09:07:57;;;;;;;0.60;0.50;;;19.20;38.20;;;;;;5023323;28;20229;-60
2022/12/28 09:10:22;;;;;;;0.60;0.60;;;19.10;38.20;;;;;;5022950;28;20723;-61
2022/12/28 09:12:47;;;;;;;0.60;0.50;;;19.20;38.20;;;;;;5023002;28;20249;-61
2022/12/28 09:15:13;;;;;;;0.60;0.50;;;19.20;38.20;;;;;;5022916;28;20768;-61
2022/12/28 09:17:38;;;;;;;0.60;0.50;;;19.20;38.20;;;;;;5022847;28;20477;-64
2022/12/28 09:20:05;;;;;;;0.70;0.60;;;19.20;38.20;;;;;;5022814;28;20222;-60
2022/12/28 09:22:30;;;;;;;0.60;0.50;;;19.20;38.20;;;;;;5021582;28;20277;-60
2022/12/28 09:24:56;;;;;;;0.60;0.57;;;19.20;38.20;;;;;;5024794;28;20468;-60
2022/12/28 09:27:21;;;;;;;0.60;0.50;;;19.20;38.20;;;;;;5029665;28;20234;-64
2022/12/28 09:29:47;;;;;;;0.60;0.50;;;19.10;38.10;;;;;;5027494;28;20678;-61
2022/12/28 09:32:13;;;;;;;0.93;0.50;;;19.20;38.10;;;;;;5029212;28;20229;-61
2022/12/28 09:34:38;;;;;;;0.90;0.60;;;19.10;38.20;;;;;;5029790;28;20218;-60
2022/12/28 09:37:05;;;;;;;0.70;0.60;;;19.20;38.20;;;;;;5028741;28;20225;-60
2022/12/28 09:39:30;;;;;;;0.70;0.60;;;19.10;38.10;;;;;;5029289;28;20227;-65
2022/12/28 09:42:26;;;;;;;0.80;0.60;;;19.20;38.20;;;;;;5028769;28;20833;-61
2022/12/28 09:45:12;;;;;;;0.60;0.53;;;19.20;38.20;;;;;;5027743;28;20306;-61
2022/12/28 09:47:51;;;;;;;0.80;0.60;;;19.10;38.20;;;;;;5028020;28;20447;-61
2022/12/28 09:50:24;;;;;;;0.70;0.60;;;19.10;38.20;;;;;;5028709;28;20459;-60
2022/12/28 09:53:18;;;;;;;0.60;0.50;;;19.10;38.20;;;;;;5029250;28;21015;-60
2022/12/28 09:56:16;;;;;;;0.60;0.53;;;19.10;38.10;;;;;;5028526;28;20451;-60
2022/12/28 09:58:43;;;;;;;0.70;0.60;;;19.10;38.10;;;;;;5027420;28;20463;-60
2022/12/28 10:01:13;;;;;;;0.70;0.50;;;19.10;38.10;;;;;;5028812;28;20444;-61
2022/12/28 10:03:40;;;;;;;0.60;0.50;;;19.10;38.10;;;;;;5030648;28;20430;-61
2022/12/28 10:06:27;;;;;;;0.60;0.50;;;19.10;38.20;;;;;;5029135;28;20450;-61
2022/12/28 10:08:57;;;;;;;0.80;0.60;;;19.10;38.30;;;;;;5028887;28;20461;-60
2022/12/28 10:11:26;;;;;;;0.70;0.60;;;19.10;38.20;;;;;;5027933;28;20488;-62
2022/12/28 10:13:57;;;;;;;0.60;0.50;;;19.10;38.20;;;;;;5028463;28;20420;-60
2022/12/28 10:16:24;;;;;;;0.60;0.50;;;19.10;38.10;;;;;;5028168;28;20494;-60
2022/12/28 10:18:50;;;;;;;0.70;0.53;;;19.10;38.20;;;;;;5028845;28;20448;-60
2022/12/28 10:21:19;;;;;;;0.80;0.57;;;19.10;38.20;;;;;;5027422;28;20445;-60
2022/12/28 10:23:47;;;;;;;0.80;0.70;;;19.10;38.30;;;;;;5028333;28;20229;-62
2022/12/28 10:26:16;;;;;;;0.70;0.60;;;19.10;38.20;;;;;;5028036;28;21199;-60
2022/12/28 10:28:53;;;;;;;0.80;0.60;;;19.10;38.20;;;;;;5028844;28;20459;-66
2022/12/28 10:31:35;;;;;;;0.60;0.50;;;19.10;38.10;;;;;;5029424;28;20449;-60
2022/12/28 10:34:01;;;;;;;0.60;0.50;;;19.10;38.10;;;;;;5026440;28;20506;-61
2022/12/28 10:36:33;;;;;;;0.70;0.60;;;19.10;38.20;;;;;;5026105;28;20463;-60
2022/12/28 10:39:00;;;;;;;0.70;0.60;;;19.10;38.10;;;;;;5023029;28;20427;-62
2022/12/28 10:41:36;;;;;;;0.60;0.50;;;19.10;38.10;;;;;;5026549;28;20539;-60
2022/12/28 10:44:18;;;;;;;0.60;0.50;;;19.10;38.00;;;;;;5024888;28;20452;-60
2022/12/28 10:46:53;;;;;;;0.70;0.50;;;19.10;38.10;;;;;;5025812;28;20456;-60
2022/12/28 10:49:19;;;;;;;0.67;0.60;;;19.20;38.10;;;;;;5026354;28;20429;-60
2022/12/28 10:51:59;;;;;;;0.60;0.50;;;19.10;38.10;;;;;;5024821;28;20881;-60
2022/12/28 10:54:25;;;;;;;0.70;0.60;;;19.10;38.00;;;;;;5026693;28;20450;-62
2022/12/28 10:56:51;;;;;;;0.80;0.60;;;19.10;38.00;;;;;;5024676;28;20922;-64
2022/12/28 10:59:22;;;;;;;0.60;0.60;;;19.10;38.00;;;;;;5024954;28;20348;-61
2022/12/28 11:01:48;;;;;;;0.60;0.53;;;19.10;38.10;;;;;;5024342;28;20246;-63
2022/12/28 11:04:25;;;;;;;0.70;0.50;;;19.10;38.10;;;;;;5024991;28;20423;-65
2022/12/28 11:06:59;;;;;;;0.60;0.50;;;19.10;38.00;;;;;;5024349;28;20222;-62
2022/12/28 11:09:26;;;;;;;0.60;0.50;;;19.10;38.00;;;;;;5026221;28;20527;-63
2022/12/28 11:11:54;;;;;;;0.70;0.53;;;19.10;38.10;;;;;;5023892;28;20430;-61
2022/12/28 11:14:33;;;;;;;0.60;0.60;;;19.10;38.00;;;;;;5025285;28;20577;-62
2022/12/28 11:17:13;;;;;;;0.70;0.60;;;19.10;38.00;;;;;;5024649;28;20436;-60
2022/12/28 11:19:39;;;;;;;0.63;0.60;;;19.10;38.00;;;;;;5024556;28;20430;-61
2022/12/28 11:22:11;;;;;;;0.60;0.50;;;19.10;38.00;;;;;;5023693;28;20472;-64
2022/12/28 11:24:38;;;;;;;0.60;0.50;;;19.10;38.00;;;;;;5023924;28;20234;-66
2022/12/28 11:27:04;;;;;;;0.70;0.60;;;19.10;38.00;;;;;;5026557;28;20442;-60
2022/12/28 11:29:29;;;;;;;0.70;0.60;;;19.10;38.10;;;;;;5024884;28;20466;-61
2022/12/28 11:32:04;;;;;;;0.63;0.53;;;19.10;38.00;;;;;;5025161;28;20223;-61
2022/12/28 11:34:30;;;;;;;0.60;0.60;;;19.20;38.00;;;;;;5023678;28;20249;-62
2022/12/28 11:36:57;;;;;;;0.60;0.50;;;19.20;38.10;;;;;;5025019;28;20846;-60
2022/12/28 11:39:25;;;;;;;0.60;0.50;;;19.20;38.00;;;;;;5024569;28;20929;-60
2022/12/28 11:41:52;;;;;;;0.60;0.50;;;19.10;38.00;;;;;;5023298;28;20463;-61
2022/12/28 11:44:41;;;;;;;0.70;0.53;;;19.10;38.00;;;;;;5016985;28;20493;-63
2022/12/28 11:47:31;;;;;;;0.60;0.50;;;19.20;38.00;;;;;;5009824;28;20467;-61
2022/12/28 11:50:38;;;;;;;0.60;0.53;;;19.20;38.00;;;;;;5023302;28;20936;-64
2022/12/28 11:53:40;;;;;;;0.70;0.53;;;19.20;38.10;;;;;;5023025;28;20462;-60
2022/12/28 11:56:13;;;;;;;0.80;0.60;;;19.10;38.00;;;;;;5021577;28;20594;-60
2022/12/28 11:58:39;;;;;;;0.60;0.50;;;19.10;38.00;;;;;;5024233;28;20510;-60
2022/12/28 12:01:07;;;;;;;0.70;0.57;;;19.20;38.10;;;;;;5023966;28;20546;-61
2022/12/28 12:04:10;;;;;;;0.60;0.50;;;19.10;38.00;;;;;;5022730;28;20623;-61
2022/12/28 12:06:42;;;;;;;0.83;0.60;;;19.10;38.00;;;;;;4979521;28;20444;-61
2022/12/28 12:09:28;;;;;;;0.60;0.50;;;19.10;38.00;;;;;;5023195;28;20472;-60
2022/12/28 12:11:55;;;;;;;0.70;0.57;;;19.20;38.10;;;;;;5024981;28;20444;-60
2022/12/28 12:14:29;;;;;;;0.60;0.60;;;19.10;38.00;;;;;;5024776;28;20447;-61
2022/12/28 12:17:06;;;;;;;0.60;0.50;;;19.10;38.00;;;;;;5022456;28;20899;-60
2022/12/28 12:19:35;;;;;;;0.60;0.50;;;19.10;38.00;;;;;;5022242;28;20460;-61
2022/12/28 12:22:21;;;;;;;0.93;0.50;;;19.10;38.10;;;;;;5023919;28;20459;-63
2022/12/28 12:24:55;;;;;;;0.70;0.60;;;19.10;37.90;;;;;;5023493;28;20509;-60
2022/12/28 12:27:31;;;;;;;0.63;0.50;;;19.10;38.00;;;;;;5022858;28;20460;-65
2022/12/28 12:30:01;;;;;;;0.70;0.70;;;19.10;38.00;;;;;;5023575;28;20870;-61
2022/12/28 12:32:45;;;;;;;0.60;0.50;;;19.10;38.00;;;;;;5022794;28;20499;-61
2022/12/28 12:35:18;;;;;;;0.70;0.50;;;19.10;38.20;;;;;;5022606;28;20506;-62
2022/12/28 12:37:49;;;;;;;0.70;0.60;;;19.10;38.00;;;;;;5023873;28;20475;-62
2022/12/28 12:40:52;;;;;;;0.60;0.50;;;19.10;38.00;;;;;;5022982;28;20545;-60
2022/12/28 12:43:48;;;;;;;0.60;0.50;;;19.10;38.00;;;;;;5022297;28;20455;-60
2022/12/28 12:46:35;;;;;;;0.70;0.60;;;19.10;38.10;;;;;;5022295;28;20996;-61
2022/12/28 12:49:19;;;;;;;0.60;0.50;;;19.10;38.10;;;;;;5021121;28;20490;-61
2022/12/28 12:52:19;;;;;;;0.80;0.70;;;19.10;38.00;;;;;;5023866;28;20456;-60
2022/12/28 12:55:06;;;;;;;0.60;0.50;;;19.10;38.00;;;;;;4970531;28;20507;-63
2022/12/28 12:57:59;;;;;;;0.70;0.60;;;19.10;38.10;;;;;;5021277;28;20518;-65
2022/12/28 13:00:48;;;;;;;0.63;0.60;;;19.10;38.10;;;;;;5021592;28;20809;-61
2022/12/28 13:03:33;;;;;;;0.60;0.50;;;19.10;38.10;;;;;;5018342;28;20804;-60
2022/12/28 13:05:59;;;;;;;0.70;0.50;;;19.10;38.10;;;;;;5021406;28;20462;-60
2022/12/28 13:08:49;;;;;;;0.60;0.50;;;19.10;38.20;;;;;;5023226;28;20778;-61
2022/12/28 13:11:17;;;;;;;0.60;0.50;;;19.10;38.10;;;;;;5008719;28;20960;-60
2022/12/28 13:13:45;;;;;;;0.60;0.50;;;19.10;38.10;;;;;;5021885;28;20492;-60
2022/12/28 13:16:16;;;;;;;0.60;0.50;;;19.10;38.10;;;;;;5023322;28;20434;-63
2022/12/28 13:18:56;;;;;;;0.67;0.53;;;19.10;38.10;;;;;;5023777;28;20452;-60
2022/12/28 13:21:23;;;;;;;0.70;0.60;;;19.10;38.00;;;;;;5023510;28;20534;-61
2022/12/28 13:23:49;;;;;;;0.60;0.50;;;19.10;38.10;;;;;;5020340;28;20512;-61
2022/12/28 13:26:16;;;;;;;0.70;0.60;;;19.10;38.00;;;;;;5023084;28;20430;-60
2022/12/28 13:28:57;;;;;;;0.70;0.60;;;19.10;38.00;;;;;;5021714;28;20499;-62
2022/12/28 13:31:27;;;;;;;0.70;0.50;;;19.10;38.00;;;;;;5021463;28;20463;-60